sensor_id;sensor_type;location;lat;lon;timestamp;P1;durP1;ratioP1;P2;durP2;ratioP2
42884;SDS011;28534;48.100;11.584;2023-03-21T00:04:33;2.65;;;1.27;;
42884;SDS011;28534;48.100;11.584;2023-03-21T00:09:36;2.75;;;1.30;;
42884;SDS011;28534;48.100;11.584;2023-03-21T00:14:39;1.88;;;1.20;;
42884;SDS011;28534;48.100;11.584;2023-03-21T00:19:40;2.08;;;1.13;;
42884;SDS011;28534;48.100;11.584;2023-03-21T00:24:43;2.70;;;1.30;;
42884;SDS011;28534;48.100;11.584;2023-03-21T00:29:47;2.35;;;1.30;;
42884;SDS011;28534;48.100;11.584;2023-03-21T00:34:49;3.33;;;1.30;;
42884;SDS011;28534;48.100;11.584;2023-03-21T00:39:51;2.72;;;1.35;;
42884;SDS011;28534;48.100;11.584;2023-03-21T00:44:54;2.40;;;1.30;;
42884;SDS011;28534;48.100;11.584;2023-03-21T00:49:56;3.20;;;1.20;;
42884;SDS011;28534;48.100;11.584;2023-03-21T00:54:58;2.47;;;1.10;;
42884;SDS011;28534;48.100;11.584;2023-03-21T01:00:02;2.00;;;1.20;;
42884;SDS011;28534;48.100;11.584;2023-03-21T01:05:06;1.70;;;0.90;;
42884;SDS011;28534;48.100;11.584;2023-03-21T01:10:09;3.47;;;1.30;;
42884;SDS011;28534;48.100;11.584;2023-03-21T01:15:12;1.75;;;1.13;;
42884;SDS011;28534;48.100;11.584;2023-03-21T01:20:14;1.38;;;1.10;;
42884;SDS011;28534;48.100;11.584;2023-03-21T01:25:16;1.52;;;1.05;;
42884;SDS011;28534;48.100;11.584;2023-03-21T01:30:19;1.60;;;1.08;;
42884;SDS011;28534;48.100;11.584;2023-03-21T01:35:21;1.83;;;1.10;;
42884;SDS011;28534;48.100;11.584;2023-03-21T01:40:24;1.48;;;1.00;;
42884;SDS011;28534;48.100;11.584;2023-03-21T01:51:22;1.70;;;1.02;;
42884;SDS011;28534;48.100;11.584;2023-03-21T01:56:27;1.42;;;1.00;;
42884;SDS011;28534;48.100;11.584;2023-03-21T02:01:32;1.65;;;1.10;;
42884;SDS011;28534;48.100;11.584;2023-03-21T02:06:39;1.52;;;1.00;;
42884;SDS011;28534;48.100;11.584;2023-03-21T02:11:44;1.42;;;1.00;;
42884;SDS011;28534;48.100;11.584;2023-03-21T02:16:49;2.10;;;0.90;;
42884;SDS011;28534;48.100;11.584;2023-03-21T02:22:02;2.13;;;1.33;;
42884;SDS011;28534;48.100;11.584;2023-03-21T02:27:32;3.60;;;1.00;;
42884;SDS011;28534;48.100;11.584;2023-03-21T02:32:45;1.17;;;0.90;;
42884;SDS011;28534;48.100;11.584;2023-03-21T02:38:02;1.48;;;1.00;;
42884;SDS011;28534;48.100;11.584;2023-03-21T02:43:08;1.30;;;0.82;;
42884;SDS011;28534;48.100;11.584;2023-03-21T02:48:17;1.60;;;1.00;;
42884;SDS011;28534;48.100;11.584;2023-03-21T02:53:24;1.45;;;1.00;;
42884;SDS011;28534;48.100;11.584;2023-03-21T02:58:31;1.67;;;1.00;;
42884;SDS011;28534;48.100;11.584;2023-03-21T03:03:33;0.95;;;0.80;;
42884;SDS011;28534;48.100;11.584;2023-03-21T03:08:41;1.40;;;0.90;;
42884;SDS011;28534;48.100;11.584;2023-03-21T03:13:54;1.60;;;0.90;;
42884;SDS011;28534;48.100;11.584;2023-03-21T03:19:06;1.42;;;1.10;;
42884;SDS011;28534;48.100;11.584;2023-03-21T03:24:12;1.25;;;1.00;;
42884;SDS011;28534;48.100;11.584;2023-03-21T03:29:19;1.33;;;0.90;;
42884;SDS011;28534;48.100;11.584;2023-03-21T03:34:24;1.80;;;1.10;;
42884;SDS011;28534;48.100;11.584;2023-03-21T03:39:34;1.90;;;1.08;;
42884;SDS011;28534;48.100;11.584;2023-03-21T03:44:38;1.25;;;0.90;;
42884;SDS011;28534;48.100;11.584;2023-03-21T03:49:41;1.10;;;0.80;;
42884;SDS011;28534;48.100;11.584;2023-03-21T03:54:50;1.88;;;0.80;;
42884;SDS011;28534;48.100;11.584;2023-03-21T03:59:53;1.55;;;0.88;;
42884;SDS011;28534;48.100;11.584;2023-03-21T04:04:55;1.40;;;1.02;;
42884;SDS011;28534;48.100;11.584;2023-03-21T04:09:58;1.33;;;0.80;;
42884;SDS011;28534;48.100;11.584;2023-03-21T04:15:00;1.15;;;0.88;;
42884;SDS011;28534;48.100;11.584;2023-03-21T04:20:02;1.27;;;0.90;;
42884;SDS011;28534;48.100;11.584;2023-03-21T04:25:08;1.00;;;0.80;;
42884;SDS011;28534;48.100;11.584;2023-03-21T04:30:13;1.23;;;0.75;;
42884;SDS011;28534;48.100;11.584;2023-03-21T04:35:15;1.27;;;0.80;;
42884;SDS011;28534;48.100;11.584;2023-03-21T04:40:18;1.35;;;0.80;;
42884;SDS011;28534;48.100;11.584;2023-03-21T04:45:20;1.58;;;0.90;;
42884;SDS011;28534;48.100;11.584;2023-03-21T04:50:22;1.35;;;1.00;;
42884;SDS011;28534;48.100;11.584;2023-03-21T04:55:25;1.65;;;1.10;;
42884;SDS011;28534;48.100;11.584;2023-03-21T05:00:30;2.28;;;1.10;;
42884;SDS011;28534;48.100;11.584;2023-03-21T05:05:36;10.88;;;1.55;;
42884;SDS011;28534;48.100;11.584;2023-03-21T05:10:40;6.32;;;1.33;;
42884;SDS011;28534;48.100;11.584;2023-03-21T05:15:42;4.80;;;1.40;;
42884;SDS011;28534;48.100;11.584;2023-03-21T05:20:43;6.20;;;1.30;;
42884;SDS011;28534;48.100;11.584;2023-03-21T05:25:54;6.63;;;1.45;;
42884;SDS011;28534;48.100;11.584;2023-03-21T05:30:56;7.40;;;2.17;;
42884;SDS011;28534;48.100;11.584;2023-03-21T05:35:57;11.80;;;2.88;;
42884;SDS011;28534;48.100;11.584;2023-03-21T05:41:01;13.82;;;3.25;;
42884;SDS011;28534;48.100;11.584;2023-03-21T05:46:03;18.95;;;3.50;;
42884;SDS011;28534;48.100;11.584;2023-03-21T05:51:05;13.93;;;2.85;;
42884;SDS011;28534;48.100;11.584;2023-03-21T05:56:08;17.98;;;3.53;;
42884;SDS011;28534;48.100;11.584;2023-03-21T06:01:10;17.60;;;3.42;;
42884;SDS011;28534;48.100;11.584;2023-03-21T06:06:12;13.48;;;3.20;;
42884;SDS011;28534;48.100;11.584;2023-03-21T06:11:19;14.02;;;3.75;;
42884;SDS011;28534;48.100;11.584;2023-03-21T06:16:24;18.50;;;3.50;;
42884;SDS011;28534;48.100;11.584;2023-03-21T06:21:27;13.85;;;3.25;;
42884;SDS011;28534;48.100;11.584;2023-03-21T06:26:30;17.27;;;3.50;;
42884;SDS011;28534;48.100;11.584;2023-03-21T06:31:32;18.67;;;3.67;;
42884;SDS011;28534;48.100;11.584;2023-03-21T06:36:34;16.67;;;3.58;;
42884;SDS011;28534;48.100;11.584;2023-03-21T06:41:37;20.90;;;3.95;;
42884;SDS011;28534;48.100;11.584;2023-03-21T06:46:39;18.02;;;3.78;;
42884;SDS011;28534;48.100;11.584;2023-03-21T06:51:41;20.70;;;4.00;;
42884;SDS011;28534;48.100;11.584;2023-03-21T06:56:44;13.55;;;3.20;;
42884;SDS011;28534;48.100;11.584;2023-03-21T07:01:46;16.38;;;3.35;;
42884;SDS011;28534;48.100;11.584;2023-03-21T07:06:48;15.60;;;3.20;;
42884;SDS011;28534;48.100;11.584;2023-03-21T07:11:52;14.93;;;3.80;;
42884;SDS011;28534;48.100;11.584;2023-03-21T07:16:54;13.95;;;3.47;;
42884;SDS011;28534;48.100;11.584;2023-03-21T07:21:55;13.80;;;2.92;;
42884;SDS011;28534;48.100;11.584;2023-03-21T07:26:58;12.50;;;2.88;;
42884;SDS011;28534;48.100;11.584;2023-03-21T07:32:00;11.65;;;3.05;;
42884;SDS011;28534;48.100;11.584;2023-03-21T07:37:02;16.77;;;3.22;;
42884;SDS011;28534;48.100;11.584;2023-03-21T07:42:07;7.82;;;3.30;;
42884;SDS011;28534;48.100;11.584;2023-03-21T07:47:10;7.18;;;2.95;;
42884;SDS011;28534;48.100;11.584;2023-03-21T07:52:12;5.00;;;2.97;;
42884;SDS011;28534;48.100;11.584;2023-03-21T07:57:15;6.13;;;3.15;;
42884;SDS011;28534;48.100;11.584;2023-03-21T08:02:17;5.75;;;3.33;;
42884;SDS011;28534;48.100;11.584;2023-03-21T08:07:19;5.28;;;3.75;;
42884;SDS011;28534;48.100;11.584;2023-03-21T08:12:22;3.63;;;3.13;;
42884;SDS011;28534;48.100;11.584;2023-03-21T08:17:24;3.75;;;2.50;;
42884;SDS011;28534;48.100;11.584;2023-03-21T08:22:25;4.35;;;2.00;;
42884;SDS011;28534;48.100;11.584;2023-03-21T08:27:29;4.78;;;1.63;;
42884;SDS011;28534;48.100;11.584;2023-03-21T08:32:30;3.10;;;1.73;;
42884;SDS011;28534;48.100;11.584;2023-03-21T08:37:32;3.63;;;1.70;;
42884;SDS011;28534;48.100;11.584;2023-03-21T08:42:36;6.13;;;1.70;;
42884;SDS011;28534;48.100;11.584;2023-03-21T08:47:38;7.05;;;1.83;;
42884;SDS011;28534;48.100;11.584;2023-03-21T08:52:39;5.78;;;1.85;;
42884;SDS011;28534;48.100;11.584;2023-03-21T08:57:43;4.07;;;1.60;;
42884;SDS011;28534;48.100;11.584;2023-03-21T09:02:46;5.18;;;1.70;;
42884;SDS011;28534;48.100;11.584;2023-03-21T09:07:50;5.18;;;1.70;;
42884;SDS011;28534;48.100;11.584;2023-03-21T09:12:53;4.68;;;1.95;;
42884;SDS011;28534;48.100;11.584;2023-03-21T09:17:56;3.85;;;1.55;;
42884;SDS011;28534;48.100;11.584;2023-03-21T09:23:13;6.95;;;1.80;;
42884;SDS011;28534;48.100;11.584;2023-03-21T09:28:16;6.35;;;1.75;;
42884;SDS011;28534;48.100;11.584;2023-03-21T09:33:18;5.03;;;1.90;;
42884;SDS011;28534;48.100;11.584;2023-03-21T09:38:24;3.25;;;2.00;;
42884;SDS011;28534;48.100;11.584;2023-03-21T09:43:33;4.30;;;1.50;;
42884;SDS011;28534;48.100;11.584;2023-03-21T09:48:48;4.63;;;1.50;;
42884;SDS011;28534;48.100;11.584;2023-03-21T09:53:56;4.90;;;1.40;;
42884;SDS011;28534;48.100;11.584;2023-03-21T09:59:04;3.03;;;1.80;;
42884;SDS011;28534;48.100;11.584;2023-03-21T10:04:11;6.47;;;2.05;;
42884;SDS011;28534;48.100;11.584;2023-03-21T10:09:18;3.28;;;1.67;;
42884;SDS011;28534;48.100;11.584;2023-03-21T10:14:26;3.35;;;1.52;;
42884;SDS011;28534;48.100;11.584;2023-03-21T10:19:30;3.97;;;1.48;;
42884;SDS011;28534;48.100;11.584;2023-03-21T10:24:32;4.43;;;1.63;;
42884;SDS011;28534;48.100;11.584;2023-03-21T10:29:38;2.88;;;1.60;;
42884;SDS011;28534;48.100;11.584;2023-03-21T10:34:43;3.42;;;1.40;;
42884;SDS011;28534;48.100;11.584;2023-03-21T10:39:49;3.72;;;1.40;;
42884;SDS011;28534;48.100;11.584;2023-03-21T10:44:54;3.10;;;1.60;;
42884;SDS011;28534;48.100;11.584;2023-03-21T10:49:59;2.05;;;1.30;;
42884;SDS011;28534;48.100;11.584;2023-03-21T10:55:14;3.72;;;1.58;;
42884;SDS011;28534;48.100;11.584;2023-03-21T11:00:22;3.47;;;1.70;;
42884;SDS011;28534;48.100;11.584;2023-03-21T11:05:32;3.83;;;1.45;;
42884;SDS011;28534;48.100;11.584;2023-03-21T11:10:37;2.75;;;1.40;;
42884;SDS011;28534;48.100;11.584;2023-03-21T11:15:52;2.85;;;1.50;;
42884;SDS011;28534;48.100;11.584;2023-03-21T11:20:56;2.88;;;1.30;;
42884;SDS011;28534;48.100;11.584;2023-03-21T11:25:59;3.78;;;1.45;;
42884;SDS011;28534;48.100;11.584;2023-03-21T11:31:04;1.70;;;1.30;;
42884;SDS011;28534;48.100;11.584;2023-03-21T11:36:24;2.03;;;1.20;;
42884;SDS011;28534;48.100;11.584;2023-03-21T11:41:32;5.47;;;1.63;;
42884;SDS011;28534;48.100;11.584;2023-03-21T11:46:39;3.35;;;1.50;;
42884;SDS011;28534;48.100;11.584;2023-03-21T11:51:43;2.17;;;1.50;;
42884;SDS011;28534;48.100;11.584;2023-03-21T11:56:52;2.55;;;1.33;;
42884;SDS011;28534;48.100;11.584;2023-03-21T12:07:40;8.18;;;2.08;;
42884;SDS011;28534;48.100;11.584;2023-03-21T12:12:54;5.35;;;1.70;;
42884;SDS011;28534;48.100;11.584;2023-03-21T12:18:05;6.97;;;1.90;;
42884;SDS011;28534;48.100;11.584;2023-03-21T12:34:48;5.35;;;1.77;;
42884;SDS011;28534;48.100;11.584;2023-03-21T12:40:08;2.55;;;1.55;;
42884;SDS011;28534;48.100;11.584;2023-03-21T12:45:18;3.72;;;1.50;;
42884;SDS011;28534;48.100;11.584;2023-03-21T12:50:22;6.95;;;1.73;;
42884;SDS011;28534;48.100;11.584;2023-03-21T12:55:29;4.53;;;1.70;;
42884;SDS011;28534;48.100;11.584;2023-03-21T13:00:34;6.55;;;1.85;;
42884;SDS011;28534;48.100;11.584;2023-03-21T13:05:43;6.22;;;1.85;;
42884;SDS011;28534;48.100;11.584;2023-03-21T13:10:51;5.32;;;1.80;;
42884;SDS011;28534;48.100;11.584;2023-03-21T13:16:00;5.53;;;1.80;;
42884;SDS011;28534;48.100;11.584;2023-03-21T13:21:09;3.47;;;1.60;;
42884;SDS011;28534;48.100;11.584;2023-03-21T13:26:16;4.47;;;1.70;;
42884;SDS011;28534;48.100;11.584;2023-03-21T13:31:19;4.63;;;1.38;;
42884;SDS011;28534;48.100;11.584;2023-03-21T13:36:25;3.75;;;1.48;;
42884;SDS011;28534;48.100;11.584;2023-03-21T13:41:32;3.40;;;1.70;;
42884;SDS011;28534;48.100;11.584;2023-03-21T13:46:42;2.80;;;1.58;;
42884;SDS011;28534;48.100;11.584;2023-03-21T13:51:45;5.32;;;1.70;;
42884;SDS011;28534;48.100;11.584;2023-03-21T13:56:53;2.75;;;1.38;;
42884;SDS011;28534;48.100;11.584;2023-03-21T14:01:57;2.45;;;1.50;;
42884;SDS011;28534;48.100;11.584;2023-03-21T14:07:00;5.47;;;1.50;;
42884;SDS011;28534;48.100;11.584;2023-03-21T14:12:11;2.92;;;1.50;;
42884;SDS011;28534;48.100;11.584;2023-03-21T14:17:21;2.03;;;1.25;;
42884;SDS011;28534;48.100;11.584;2023-03-21T14:22:24;2.97;;;1.58;;
42884;SDS011;28534;48.100;11.584;2023-03-21T14:27:29;2.30;;;1.45;;
42884;SDS011;28534;48.100;11.584;2023-03-21T14:32:32;4.15;;;1.42;;
42884;SDS011;28534;48.100;11.584;2023-03-21T14:37:36;3.95;;;1.38;;
42884;SDS011;28534;48.100;11.584;2023-03-21T14:42:41;2.40;;;1.20;;
42884;SDS011;28534;48.100;11.584;2023-03-21T14:47:56;2.47;;;1.30;;
42884;SDS011;28534;48.100;11.584;2023-03-21T14:52:58;2.50;;;1.40;;
42884;SDS011;28534;48.100;11.584;2023-03-21T14:58:02;2.25;;;1.33;;
42884;SDS011;28534;48.100;11.584;2023-03-21T15:03:04;3.28;;;1.35;;
42884;SDS011;28534;48.100;11.584;2023-03-21T15:08:07;2.60;;;1.45;;
42884;SDS011;28534;48.100;11.584;2023-03-21T15:13:14;2.15;;;1.20;;
42884;SDS011;28534;48.100;11.584;2023-03-21T15:18:21;2.40;;;1.27;;
42884;SDS011;28534;48.100;11.584;2023-03-21T15:23:27;3.90;;;1.85;;
42884;SDS011;28534;48.100;11.584;2023-03-21T15:28:36;3.35;;;1.33;;
42884;SDS011;28534;48.100;11.584;2023-03-21T15:33:38;3.88;;;1.65;;
42884;SDS011;28534;48.100;11.584;2023-03-21T15:38:40;1.90;;;1.05;;
42884;SDS011;28534;48.100;11.584;2023-03-21T15:43:45;1.65;;;1.15;;
42884;SDS011;28534;48.100;11.584;2023-03-21T15:48:48;5.05;;;1.50;;
42884;SDS011;28534;48.100;11.584;2023-03-21T15:54:08;12.90;;;2.90;;
42884;SDS011;28534;48.100;11.584;2023-03-21T15:59:14;25.83;;;4.05;;
42884;SDS011;28534;48.100;11.584;2023-03-21T16:04:18;35.00;;;4.10;;
42884;SDS011;28534;48.100;11.584;2023-03-21T16:09:22;22.98;;;4.28;;
42884;SDS011;28534;48.100;11.584;2023-03-21T16:14:26;35.33;;;4.80;;
42884;SDS011;28534;48.100;11.584;2023-03-21T16:19:28;34.55;;;5.13;;
42884;SDS011;28534;48.100;11.584;2023-03-21T16:24:29;23.75;;;3.75;;
42884;SDS011;28534;48.100;11.584;2023-03-21T16:29:33;28.05;;;3.75;;
42884;SDS011;28534;48.100;11.584;2023-03-21T16:34:35;17.88;;;3.00;;
42884;SDS011;28534;48.100;11.584;2023-03-21T16:39:37;20.70;;;3.47;;
42884;SDS011;28534;48.100;11.584;2023-03-21T16:44:40;16.63;;;3.28;;
42884;SDS011;28534;48.100;11.584;2023-03-21T16:49:42;29.10;;;3.78;;
42884;SDS011;28534;48.100;11.584;2023-03-21T16:54:44;22.30;;;3.50;;
42884;SDS011;28534;48.100;11.584;2023-03-21T16:59:47;21.75;;;3.33;;
42884;SDS011;28534;48.100;11.584;2023-03-21T17:04:49;20.60;;;3.60;;
42884;SDS011;28534;48.100;11.584;2023-03-21T17:09:51;20.10;;;3.22;;
42884;SDS011;28534;48.100;11.584;2023-03-21T17:14:54;12.60;;;2.92;;
42884;SDS011;28534;48.100;11.584;2023-03-21T17:19:56;19.38;;;3.40;;
42884;SDS011;28534;48.100;11.584;2023-03-21T17:24:58;17.33;;;3.35;;
42884;SDS011;28534;48.100;11.584;2023-03-21T17:30:05;17.45;;;3.45;;
42884;SDS011;28534;48.100;11.584;2023-03-21T17:35:16;15.30;;;3.05;;
42884;SDS011;28534;48.100;11.584;2023-03-21T17:40:20;9.35;;;3.03;;
42884;SDS011;28534;48.100;11.584;2023-03-21T17:45:24;16.23;;;3.17;;
42884;SDS011;28534;48.100;11.584;2023-03-21T17:50:26;18.08;;;3.40;;
42884;SDS011;28534;48.100;11.584;2023-03-21T17:55:33;14.05;;;2.97;;
42884;SDS011;28534;48.100;11.584;2023-03-21T18:00:36;11.23;;;2.90;;
42884;SDS011;28534;48.100;11.584;2023-03-21T18:05:38;15.00;;;3.83;;
42884;SDS011;28534;48.100;11.584;2023-03-21T18:10:40;14.52;;;2.90;;
42884;SDS011;28534;48.100;11.584;2023-03-21T18:15:44;11.30;;;3.00;;
42884;SDS011;28534;48.100;11.584;2023-03-21T18:20:46;11.93;;;2.90;;
42884;SDS011;28534;48.100;11.584;2023-03-21T18:25:47;13.30;;;3.13;;
42884;SDS011;28534;48.100;11.584;2023-03-21T18:30:52;17.33;;;3.15;;
42884;SDS011;28534;48.100;11.584;2023-03-21T18:35:54;19.65;;;3.25;;
42884;SDS011;28534;48.100;11.584;2023-03-21T18:40:56;11.35;;;2.83;;
42884;SDS011;28534;48.100;11.584;2023-03-21T18:45:59;10.68;;;2.97;;
42884;SDS011;28534;48.100;11.584;2023-03-21T18:51:01;10.15;;;3.05;;
42884;SDS011;28534;48.100;11.584;2023-03-21T18:56:03;7.65;;;2.70;;
42884;SDS011;28534;48.100;11.584;2023-03-21T19:01:06;8.15;;;2.30;;
42884;SDS011;28534;48.100;11.584;2023-03-21T19:06:08;11.23;;;2.47;;
42884;SDS011;28534;48.100;11.584;2023-03-21T19:11:10;10.57;;;2.80;;
42884;SDS011;28534;48.100;11.584;2023-03-21T19:16:13;11.20;;;3.22;;
42884;SDS011;28534;48.100;11.584;2023-03-21T19:21:15;8.25;;;2.50;;
42884;SDS011;28534;48.100;11.584;2023-03-21T19:26:17;9.90;;;2.47;;
42884;SDS011;28534;48.100;11.584;2023-03-21T19:31:20;10.73;;;2.45;;
42884;SDS011;28534;48.100;11.584;2023-03-21T19:36:23;9.32;;;2.40;;
42884;SDS011;28534;48.100;11.584;2023-03-21T19:41:25;7.78;;;2.38;;
42884;SDS011;28534;48.100;11.584;2023-03-21T19:46:28;11.40;;;2.20;;
42884;SDS011;28534;48.100;11.584;2023-03-21T19:51:30;10.25;;;2.53;;
42884;SDS011;28534;48.100;11.584;2023-03-21T19:56:32;9.55;;;2.40;;
42884;SDS011;28534;48.100;11.584;2023-03-21T20:01:35;8.18;;;2.17;;
42884;SDS011;28534;48.100;11.584;2023-03-21T20:06:37;5.10;;;2.00;;
42884;SDS011;28534;48.100;11.584;2023-03-21T20:11:39;9.38;;;2.10;;
42884;SDS011;28534;48.100;11.584;2023-03-21T20:16:42;8.73;;;2.33;;
42884;SDS011;28534;48.100;11.584;2023-03-21T20:21:44;6.85;;;1.88;;
42884;SDS011;28534;48.100;11.584;2023-03-21T20:26:47;6.47;;;1.95;;
42884;SDS011;28534;48.100;11.584;2023-03-21T20:31:53;6.43;;;2.03;;
42884;SDS011;28534;48.100;11.584;2023-03-21T20:36:55;7.32;;;2.03;;
42884;SDS011;28534;48.100;11.584;2023-03-21T20:41:57;5.15;;;1.80;;
42884;SDS011;28534;48.100;11.584;2023-03-21T20:47:00;7.40;;;1.90;;
42884;SDS011;28534;48.100;11.584;2023-03-21T20:52:04;6.00;;;1.80;;
42884;SDS011;28534;48.100;11.584;2023-03-21T20:57:07;6.65;;;2.00;;
42884;SDS011;28534;48.100;11.584;2023-03-21T21:02:11;6.07;;;2.05;;
42884;SDS011;28534;48.100;11.584;2023-03-21T21:07:13;5.70;;;1.67;;
42884;SDS011;28534;48.100;11.584;2023-03-21T21:12:16;6.68;;;2.35;;
42884;SDS011;28534;48.100;11.584;2023-03-21T21:17:19;6.40;;;2.15;;
42884;SDS011;28534;48.100;11.584;2023-03-21T21:22:21;4.78;;;1.77;;
42884;SDS011;28534;48.100;11.584;2023-03-21T21:27:23;5.13;;;2.33;;
42884;SDS011;28534;48.100;11.584;2023-03-21T21:32:26;5.10;;;1.83;;
42884;SDS011;28534;48.100;11.584;2023-03-21T21:37:28;6.18;;;2.28;;
42884;SDS011;28534;48.100;11.584;2023-03-21T21:42:32;5.13;;;1.92;;
42884;SDS011;28534;48.100;11.584;2023-03-21T21:47:36;5.57;;;1.90;;
42884;SDS011;28534;48.100;11.584;2023-03-21T21:52:37;8.43;;;2.03;;
42884;SDS011;28534;48.100;11.584;2023-03-21T21:57:42;6.13;;;1.80;;
42884;SDS011;28534;48.100;11.584;2023-03-21T22:02:50;4.32;;;1.80;;
42884;SDS011;28534;48.100;11.584;2023-03-21T22:07:52;3.47;;;1.60;;
42884;SDS011;28534;48.100;11.584;2023-03-21T22:12:55;3.95;;;1.63;;
42884;SDS011;28534;48.100;11.584;2023-03-21T22:17:58;4.78;;;1.65;;
42884;SDS011;28534;48.100;11.584;2023-03-21T22:23:00;7.15;;;2.15;;
42884;SDS011;28534;48.100;11.584;2023-03-21T22:28:02;4.90;;;2.08;;
42884;SDS011;28534;48.100;11.584;2023-03-21T22:33:05;3.90;;;1.55;;
42884;SDS011;28534;48.100;11.584;2023-03-21T22:38:07;3.83;;;1.50;;
42884;SDS011;28534;48.100;11.584;2023-03-21T22:43:08;4.60;;;1.55;;
42884;SDS011;28534;48.100;11.584;2023-03-21T22:48:12;3.83;;;1.70;;
42884;SDS011;28534;48.100;11.584;2023-03-21T22:53:13;5.32;;;1.60;;
42884;SDS011;28534;48.100;11.584;2023-03-21T22:58:15;2.63;;;1.42;;
42884;SDS011;28534;48.100;11.584;2023-03-21T23:03:18;5.47;;;1.70;;
42884;SDS011;28534;48.100;11.584;2023-03-21T23:08:20;4.05;;;1.70;;
42884;SDS011;28534;48.100;11.584;2023-03-21T23:13:22;4.97;;;2.00;;
42884;SDS011;28534;48.100;11.584;2023-03-21T23:18:27;7.05;;;1.98;;
42884;SDS011;28534;48.100;11.584;2023-03-21T23:23:29;3.28;;;1.30;;
42884;SDS011;28534;48.100;11.584;2023-03-21T23:28:31;3.63;;;1.50;;
42884;SDS011;28534;48.100;11.584;2023-03-21T23:33:34;4.28;;;1.48;;
42884;SDS011;28534;48.100;11.584;2023-03-21T23:38:36;2.35;;;1.40;;
42884;SDS011;28534;48.100;11.584;2023-03-21T23:43:38;3.33;;;1.50;;
42884;SDS011;28534;48.100;11.584;2023-03-21T23:48:43;4.20;;;1.73;;
42884;SDS011;28534;48.100;11.584;2023-03-21T23:53:45;4.70;;;1.60;;
42884;SDS011;28534;48.100;11.584;2023-03-21T23:58:47;3.25;;;1.33;;
